Vremea mâine în Beiuș - Romania

Vrei sa afli care e starea vremii acum in Bihor - Romania? Dorim sa iti furnizam starea vremii pentru Bihor - Romania. Starea vremii Bihor - Romania pentru astazi.

Vremea mâine în Beiuș

Temperatura minimă:
9.7 °C

Temperatura maximă:
22.9 °C

Mâine va fi:
Precipitații: 0 %
Umiditate: 59%
Viteza maximă vânt mâine:
15.8 km/h

Evoluția vremii in Beiuș pe ore mâine

Ora: 03:00
Temperatura: °C
Sansa de precipitatii: %
Ora Descriere Temp Se simte Precipitatii Umiditate Vant
00:00Senin12.6°11.7°0%55%ESE 10.1 KM/H
01:00Senin12.4°11.6°0%54%ESE 9.7 KM/H
02:00Senin12.1°11.6°0%56%SE 7.6 KM/H
03:00Senin11.2°10.9°0%61%SSE 5.8 KM/H
04:00Senin10.6°9.8°0%64%SE 7.6 KM/H
05:00Senin10.2°9.5°0%67%SE 6.8 KM/H
06:00Senin9.7°0%71%SSE 6.5 KM/H
07:00Senin10.2°9.6°0%73%SSE 6.1 KM/H
08:00Senin14.5°14.9°0%68%S 4.7 KM/H
09:00Senin16.9°16.9°0%61%S 5 KM/H
10:0018.5°18.5°0%57%SSW 6.5 KM/H
11:00Innorat19.9°19.9°0%51%SW 8.3 KM/H
12:00Acoperit de nori21.2°21.2°0%48%SW 10.8 KM/H
13:00Innorat22°24.3°0%45%SW 12.6 KM/H
14:0022.6°24.4°0%44%WSW 13.7 KM/H
15:00Acoperit de nori22.9°24.5°0%44%WSW 14.4 KM/H
16:0022.5°24.5°0%47%W 15.8 KM/H
17:00Senin22.3°24.5°0%49%W 13.3 KM/H
18:00Patchy rain nearby21.8°21.8°61%52%WSW 11.9 KM/H
19:00Patchy rain nearby21°21°61%60%WSW 6.1 KM/H
20:00Senin16.3°16.3°0%69%SSE 2.5 KM/H
21:00Senin13.9°13.7°0%73%ESE 6.8 KM/H
22:00Senin12.9°12.3°0%75%ESE 9 KM/H
23:00Senin12.4°11.7°0%75%ESE 9 KM/H




tutorials